sensor_id;sensor_type;location;lat;lon;timestamp;P1;durP1;ratioP1;P2;durP2;ratioP2
81191;SDS011;70665;47.652;-2.730;2023-08-01T00:02:26;7.25;;;1.92;;
81191;SDS011;70665;47.652;-2.730;2023-08-01T00:04:51;8.23;;;1.92;;
81191;SDS011;70665;47.652;-2.730;2023-08-01T00:07:17;4.85;;;1.45;;
81191;SDS011;70665;47.652;-2.730;2023-08-01T00:09:43;5.38;;;1.75;;
81191;SDS011;70665;47.652;-2.730;2023-08-01T00:12:08;5.70;;;1.83;;
81191;SDS011;70665;47.652;-2.730;2023-08-01T00:14:35;5.45;;;1.98;;
81191;SDS011;70665;47.652;-2.730;2023-08-01T00:17:01;5.40;;;2.05;;
81191;SDS011;70665;47.652;-2.730;2023-08-01T00:19:27;5.03;;;1.70;;
81191;SDS011;70665;47.652;-2.730;2023-08-01T00:21:53;4.82;;;1.92;;
81191;SDS011;70665;47.652;-2.730;2023-08-01T00:24:18;5.97;;;2.10;;
81191;SDS011;70665;47.652;-2.730;2023-08-01T00:26:44;7.18;;;1.92;;
81191;SDS011;70665;47.652;-2.730;2023-08-01T00:29:10;4.50;;;1.77;;
81191;SDS011;70665;47.652;-2.730;2023-08-01T00:31:35;4.57;;;1.50;;
81191;SDS011;70665;47.652;-2.730;2023-08-01T00:34:01;3.53;;;1.50;;
81191;SDS011;70665;47.652;-2.730;2023-08-01T00:36:27;7.22;;;1.65;;
81191;SDS011;70665;47.652;-2.730;2023-08-01T00:38:52;4.20;;;2.17;;
81191;SDS011;70665;47.652;-2.730;2023-08-01T00:41:18;5.63;;;1.83;;
81191;SDS011;70665;47.652;-2.730;2023-08-01T00:43:44;5.20;;;1.40;;
81191;SDS011;70665;47.652;-2.730;2023-08-01T00:46:09;4.20;;;1.90;;
81191;SDS011;70665;47.652;-2.730;2023-08-01T00:48:35;4.15;;;2.03;;
81191;SDS011;70665;47.652;-2.730;2023-08-01T00:51:05;4.28;;;1.63;;
81191;SDS011;70665;47.652;-2.730;2023-08-01T00:53:32;3.40;;;1.60;;
81191;SDS011;70665;47.652;-2.730;2023-08-01T00:55:58;7.43;;;1.80;;
81191;SDS011;70665;47.652;-2.730;2023-08-01T00:58:24;6.28;;;1.88;;
81191;SDS011;70665;47.652;-2.730;2023-08-01T01:00:50;5.53;;;1.80;;
81191;SDS011;70665;47.652;-2.730;2023-08-01T01:03:16;4.82;;;1.98;;
81191;SDS011;70665;47.652;-2.730;2023-08-01T01:05:43;6.35;;;1.52;;
81191;SDS011;70665;47.652;-2.730;2023-08-01T01:08:14;10.00;;;2.45;;
81191;SDS011;70665;47.652;-2.730;2023-08-01T01:10:40;3.72;;;1.70;;
81191;SDS011;70665;47.652;-2.730;2023-08-01T01:13:06;4.65;;;1.92;;
81191;SDS011;70665;47.652;-2.730;2023-08-01T01:15:31;5.55;;;1.80;;
81191;SDS011;70665;47.652;-2.730;2023-08-01T01:17:57;4.10;;;1.27;;
81191;SDS011;70665;47.652;-2.730;2023-08-01T01:20:23;3.67;;;1.50;;
81191;SDS011;70665;47.652;-2.730;2023-08-01T01:22:49;3.42;;;1.45;;
81191;SDS011;70665;47.652;-2.730;2023-08-01T01:25:22;2.45;;;1.55;;
81191;SDS011;70665;47.652;-2.730;2023-08-01T01:27:50;4.00;;;1.48;;
81191;SDS011;70665;47.652;-2.730;2023-08-01T01:30:18;3.05;;;1.38;;
81191;SDS011;70665;47.652;-2.730;2023-08-01T01:32:46;2.83;;;1.75;;
81191;SDS011;70665;47.652;-2.730;2023-08-01T01:35:11;4.80;;;1.48;;
81191;SDS011;70665;47.652;-2.730;2023-08-01T01:37:37;2.55;;;1.48;;
81191;SDS011;70665;47.652;-2.730;2023-08-01T01:40:03;2.97;;;0.98;;
81191;SDS011;70665;47.652;-2.730;2023-08-01T01:42:29;3.33;;;1.38;;
81191;SDS011;70665;47.652;-2.730;2023-08-01T01:44:54;2.60;;;1.17;;
81191;SDS011;70665;47.652;-2.730;2023-08-01T01:47:20;2.38;;;1.23;;
81191;SDS011;70665;47.652;-2.730;2023-08-01T01:49:45;3.53;;;1.33;;
81191;SDS011;70665;47.652;-2.730;2023-08-01T01:52:11;2.58;;;1.42;;
81191;SDS011;70665;47.652;-2.730;2023-08-01T01:54:37;4.53;;;2.17;;
81191;SDS011;70665;47.652;-2.730;2023-08-01T01:57:02;2.50;;;1.25;;
81191;SDS011;70665;47.652;-2.730;2023-08-01T01:59:28;2.75;;;1.50;;
81191;SDS011;70665;47.652;-2.730;2023-08-01T02:01:54;3.30;;;1.50;;
81191;SDS011;70665;47.652;-2.730;2023-08-01T02:04:19;2.13;;;1.50;;
81191;SDS011;70665;47.652;-2.730;2023-08-01T02:06:46;4.60;;;1.58;;
81191;SDS011;70665;47.652;-2.730;2023-08-01T02:09:12;5.97;;;1.92;;
81191;SDS011;70665;47.652;-2.730;2023-08-01T02:11:38;4.85;;;2.10;;
81191;SDS011;70665;47.652;-2.730;2023-08-01T02:14:04;3.17;;;2.30;;
81191;SDS011;70665;47.652;-2.730;2023-08-01T02:16:30;3.63;;;1.50;;
81191;SDS011;70665;47.652;-2.730;2023-08-01T02:18:56;4.68;;;2.08;;
81191;SDS011;70665;47.652;-2.730;2023-08-01T02:21:21;3.92;;;1.90;;
81191;SDS011;70665;47.652;-2.730;2023-08-01T02:23:47;4.50;;;2.67;;
81191;SDS011;70665;47.652;-2.730;2023-08-01T02:26:12;5.03;;;2.00;;
81191;SDS011;70665;47.652;-2.730;2023-08-01T02:28:38;6.63;;;1.73;;
81191;SDS011;70665;47.652;-2.730;2023-08-01T02:33:30;4.15;;;2.03;;
81191;SDS011;70665;47.652;-2.730;2023-08-01T02:35:55;4.35;;;2.17;;
81191;SDS011;70665;47.652;-2.730;2023-08-01T02:38:21;6.22;;;2.28;;
81191;SDS011;70665;47.652;-2.730;2023-08-01T02:40:46;5.43;;;2.47;;
81191;SDS011;70665;47.652;-2.730;2023-08-01T02:45:38;7.65;;;2.70;;
81191;SDS011;70665;47.652;-2.730;2023-08-01T02:48:03;5.28;;;2.63;;
81191;SDS011;70665;47.652;-2.730;2023-08-01T02:50:29;5.97;;;2.40;;
81191;SDS011;70665;47.652;-2.730;2023-08-01T02:52:55;9.52;;;3.13;;
81191;SDS011;70665;47.652;-2.730;2023-08-01T02:57:46;5.72;;;2.33;;
81191;SDS011;70665;47.652;-2.730;2023-08-01T03:00:11;5.72;;;2.30;;
81191;SDS011;70665;47.652;-2.730;2023-08-01T03:05:05;7.22;;;2.50;;
81191;SDS011;70665;47.652;-2.730;2023-08-01T03:07:32;15.00;;;2.38;;
81191;SDS011;70665;47.652;-2.730;2023-08-01T03:12:24;4.80;;;2.72;;
81191;SDS011;70665;47.652;-2.730;2023-08-01T03:14:49;5.35;;;2.42;;
81191;SDS011;70665;47.652;-2.730;2023-08-01T03:19:41;7.20;;;2.42;;
81191;SDS011;70665;47.652;-2.730;2023-08-01T03:24:33;5.50;;;2.65;;
81191;SDS011;70665;47.652;-2.730;2023-08-01T03:29:24;6.32;;;2.30;;
81191;SDS011;70665;47.652;-2.730;2023-08-01T03:31:49;6.18;;;2.55;;
81191;SDS011;70665;47.652;-2.730;2023-08-01T03:34:15;7.32;;;2.30;;
81191;SDS011;70665;47.652;-2.730;2023-08-01T03:39:06;8.15;;;2.50;;
81191;SDS011;70665;47.652;-2.730;2023-08-01T03:41:34;3.97;;;2.25;;
81191;SDS011;70665;47.652;-2.730;2023-08-01T03:46:26;8.30;;;2.33;;
81191;SDS011;70665;47.652;-2.730;2023-08-01T03:48:52;9.40;;;2.80;;
81191;SDS011;70665;47.652;-2.730;2023-08-01T03:53:44;8.73;;;2.75;;
81191;SDS011;70665;47.652;-2.730;2023-08-01T03:56:10;9.43;;;2.63;;
81191;SDS011;70665;47.652;-2.730;2023-08-01T04:01:02;5.60;;;2.38;;
81191;SDS011;70665;47.652;-2.730;2023-08-01T04:05:53;8.52;;;2.47;;
81191;SDS011;70665;47.652;-2.730;2023-08-01T04:08:19;8.75;;;3.03;;
81191;SDS011;70665;47.652;-2.730;2023-08-01T04:13:10;11.02;;;3.42;;
81191;SDS011;70665;47.652;-2.730;2023-08-01T04:15:36;11.07;;;3.15;;
81191;SDS011;70665;47.652;-2.730;2023-08-01T04:20:27;5.38;;;2.65;;
81191;SDS011;70665;47.652;-2.730;2023-08-01T04:25:18;9.63;;;3.17;;
81191;SDS011;70665;47.652;-2.730;2023-08-01T04:30:10;8.52;;;3.67;;
81191;SDS011;70665;47.652;-2.730;2023-08-01T04:32:36;7.70;;;3.53;;
81191;SDS011;70665;47.652;-2.730;2023-08-01T04:37:27;8.73;;;3.67;;
81191;SDS011;70665;47.652;-2.730;2023-08-01T04:39:53;11.30;;;3.58;;
81191;SDS011;70665;47.652;-2.730;2023-08-01T04:44:44;8.48;;;3.20;;
81191;SDS011;70665;47.652;-2.730;2023-08-01T04:49:35;11.98;;;3.55;;
81191;SDS011;70665;47.652;-2.730;2023-08-01T04:54:26;10.82;;;4.20;;
81191;SDS011;70665;47.652;-2.730;2023-08-01T04:59:17;9.10;;;3.53;;
81191;SDS011;70665;47.652;-2.730;2023-08-01T05:01:43;12.68;;;3.35;;
81191;SDS011;70665;47.652;-2.730;2023-08-01T05:06:34;9.32;;;3.28;;
81191;SDS011;70665;47.652;-2.730;2023-08-01T05:09:00;11.30;;;3.67;;
81191;SDS011;70665;47.652;-2.730;2023-08-01T05:11:26;12.45;;;4.93;;
81191;SDS011;70665;47.652;-2.730;2023-08-01T05:16:17;9.20;;;3.60;;
81191;SDS011;70665;47.652;-2.730;2023-08-01T05:18:43;15.57;;;3.72;;
81191;SDS011;70665;47.652;-2.730;2023-08-01T05:23:34;10.02;;;3.45;;
81191;SDS011;70665;47.652;-2.730;2023-08-01T05:26:01;17.02;;;3.65;;
81191;SDS011;70665;47.652;-2.730;2023-08-01T05:30:52;19.10;;;3.35;;
81191;SDS011;70665;47.652;-2.730;2023-08-01T05:33:18;12.13;;;3.70;;
81191;SDS011;70665;47.652;-2.730;2023-08-01T05:38:09;14.00;;;3.95;;
81191;SDS011;70665;47.652;-2.730;2023-08-01T05:40:35;14.50;;;3.53;;
81191;SDS011;70665;47.652;-2.730;2023-08-01T05:45:26;15.68;;;4.13;;
81191;SDS011;70665;47.652;-2.730;2023-08-01T05:50:17;13.18;;;4.00;;
81191;SDS011;70665;47.652;-2.730;2023-08-01T05:52:43;11.25;;;3.58;;
81191;SDS011;70665;47.652;-2.730;2023-08-01T05:57:34;10.57;;;4.88;;
81191;SDS011;70665;47.652;-2.730;2023-08-01T06:02:26;12.65;;;3.55;;
81191;SDS011;70665;47.652;-2.730;2023-08-01T06:04:52;15.07;;;3.55;;
81191;SDS011;70665;47.652;-2.730;2023-08-01T06:09:48;13.45;;;4.30;;
81191;SDS011;70665;47.652;-2.730;2023-08-01T06:12:16;13.98;;;3.65;;
81191;SDS011;70665;47.652;-2.730;2023-08-01T06:14:42;13.40;;;4.15;;
81191;SDS011;70665;47.652;-2.730;2023-08-01T06:19:33;16.60;;;3.42;;
81191;SDS011;70665;47.652;-2.730;2023-08-01T06:21:59;12.35;;;4.05;;
81191;SDS011;70665;47.652;-2.730;2023-08-01T06:24:25;14.95;;;4.25;;
81191;SDS011;70665;47.652;-2.730;2023-08-01T06:29:16;16.35;;;3.63;;
81191;SDS011;70665;47.652;-2.730;2023-08-01T06:31:42;13.02;;;4.75;;
81191;SDS011;70665;47.652;-2.730;2023-08-01T06:34:07;14.18;;;4.00;;
81191;SDS011;70665;47.652;-2.730;2023-08-01T06:36:33;12.70;;;3.33;;
81191;SDS011;70665;47.652;-2.730;2023-08-01T06:39:00;15.73;;;4.00;;
81191;SDS011;70665;47.652;-2.730;2023-08-01T06:43:51;14.15;;;4.70;;
81191;SDS011;70665;47.652;-2.730;2023-08-01T06:46:17;12.85;;;3.75;;
81191;SDS011;70665;47.652;-2.730;2023-08-01T06:48:42;14.95;;;4.30;;
81191;SDS011;70665;47.652;-2.730;2023-08-01T06:51:08;11.07;;;3.63;;
81191;SDS011;70665;47.652;-2.730;2023-08-01T06:53:33;16.33;;;4.20;;
81191;SDS011;70665;47.652;-2.730;2023-08-01T06:55:59;14.98;;;3.88;;
81191;SDS011;70665;47.652;-2.730;2023-08-01T06:58:25;14.57;;;3.75;;
81191;SDS011;70665;47.652;-2.730;2023-08-01T07:00:50;13.00;;;3.67;;
81191;SDS011;70665;47.652;-2.730;2023-08-01T07:03:16;16.85;;;3.67;;
81191;SDS011;70665;47.652;-2.730;2023-08-01T07:05:42;10.60;;;3.85;;
81191;SDS011;70665;47.652;-2.730;2023-08-01T07:08:08;11.98;;;4.22;;
81191;SDS011;70665;47.652;-2.730;2023-08-01T07:10:36;11.77;;;4.13;;
81191;SDS011;70665;47.652;-2.730;2023-08-01T07:13:02;12.18;;;3.25;;
81191;SDS011;70665;47.652;-2.730;2023-08-01T07:15:29;13.98;;;4.03;;
81191;SDS011;70665;47.652;-2.730;2023-08-01T07:17:58;14.68;;;3.40;;
81191;SDS011;70665;47.652;-2.730;2023-08-01T07:20:24;20.20;;;4.28;;
81191;SDS011;70665;47.652;-2.730;2023-08-01T07:22:49;17.02;;;4.35;;
81191;SDS011;70665;47.652;-2.730;2023-08-01T07:25:15;13.10;;;3.92;;
81191;SDS011;70665;47.652;-2.730;2023-08-01T07:27:42;10.30;;;3.58;;
81191;SDS011;70665;47.652;-2.730;2023-08-01T07:30:08;11.60;;;3.97;;
81191;SDS011;70665;47.652;-2.730;2023-08-01T07:32:35;13.88;;;3.97;;
81191;SDS011;70665;47.652;-2.730;2023-08-01T07:35:02;10.55;;;3.78;;
81191;SDS011;70665;47.652;-2.730;2023-08-01T07:37:28;11.07;;;3.75;;
81191;SDS011;70665;47.652;-2.730;2023-08-01T07:39:55;8.57;;;3.55;;
81191;SDS011;70665;47.652;-2.730;2023-08-01T07:42:21;12.43;;;3.95;;
81191;SDS011;70665;47.652;-2.730;2023-08-01T07:44:47;13.13;;;3.38;;
81191;SDS011;70665;47.652;-2.730;2023-08-01T07:47:12;11.95;;;3.53;;
81191;SDS011;70665;47.652;-2.730;2023-08-01T07:49:38;14.88;;;5.82;;
81191;SDS011;70665;47.652;-2.730;2023-08-01T07:52:04;9.05;;;3.17;;
81191;SDS011;70665;47.652;-2.730;2023-08-01T07:54:30;10.60;;;3.65;;
81191;SDS011;70665;47.652;-2.730;2023-08-01T07:56:55;12.77;;;3.75;;
81191;SDS011;70665;47.652;-2.730;2023-08-01T07:59:21;8.40;;;2.85;;
81191;SDS011;70665;47.652;-2.730;2023-08-01T08:01:47;9.35;;;2.90;;
81191;SDS011;70665;47.652;-2.730;2023-08-01T08:04:13;11.73;;;3.65;;
81191;SDS011;70665;47.652;-2.730;2023-08-01T08:06:39;9.15;;;3.50;;
81191;SDS011;70665;47.652;-2.730;2023-08-01T08:09:05;12.20;;;3.45;;
81191;SDS011;70665;47.652;-2.730;2023-08-01T08:11:31;12.70;;;3.30;;
81191;SDS011;70665;47.652;-2.730;2023-08-01T08:13:58;12.15;;;3.70;;
81191;SDS011;70665;47.652;-2.730;2023-08-01T08:16:24;11.07;;;3.70;;
81191;SDS011;70665;47.652;-2.730;2023-08-01T08:18:50;8.27;;;3.40;;
81191;SDS011;70665;47.652;-2.730;2023-08-01T08:21:15;12.82;;;3.90;;
81191;SDS011;70665;47.652;-2.730;2023-08-01T08:23:41;9.10;;;3.40;;
81191;SDS011;70665;47.652;-2.730;2023-08-01T08:26:07;8.27;;;3.40;;
81191;SDS011;70665;47.652;-2.730;2023-08-01T08:28:33;12.38;;;3.63;;
81191;SDS011;70665;47.652;-2.730;2023-08-01T08:30:59;7.90;;;3.10;;
81191;SDS011;70665;47.652;-2.730;2023-08-01T08:33:26;8.52;;;3.50;;
81191;SDS011;70665;47.652;-2.730;2023-08-01T08:35:52;11.10;;;3.20;;
81191;SDS011;70665;47.652;-2.730;2023-08-01T08:38:17;9.15;;;3.15;;
81191;SDS011;70665;47.652;-2.730;2023-08-01T08:40:56;5.97;;;2.70;;
81191;SDS011;70665;47.652;-2.730;2023-08-01T08:43:29;6.97;;;3.10;;
81191;SDS011;70665;47.652;-2.730;2023-08-01T08:45:56;9.98;;;2.70;;
81191;SDS011;70665;47.652;-2.730;2023-08-01T08:48:24;8.55;;;2.90;;
81191;SDS011;70665;47.652;-2.730;2023-08-01T08:50:51;7.47;;;2.90;;
81191;SDS011;70665;47.652;-2.730;2023-08-01T08:53:17;7.00;;;3.33;;
81191;SDS011;70665;47.652;-2.730;2023-08-01T08:55:43;7.70;;;3.08;;
81191;SDS011;70665;47.652;-2.730;2023-08-01T08:58:09;10.55;;;3.90;;
81191;SDS011;70665;47.652;-2.730;2023-08-01T09:00:35;7.88;;;4.00;;
81191;SDS011;70665;47.652;-2.730;2023-08-01T09:03:02;12.73;;;3.60;;
81191;SDS011;70665;47.652;-2.730;2023-08-01T09:05:30;6.25;;;3.15;;
81191;SDS011;70665;47.652;-2.730;2023-08-01T09:08:01;9.73;;;3.83;;
81191;SDS011;70665;47.652;-2.730;2023-08-01T09:10:32;8.68;;;3.60;;
81191;SDS011;70665;47.652;-2.730;2023-08-01T09:12:57;12.70;;;4.93;;
81191;SDS011;70665;47.652;-2.730;2023-08-01T09:15:24;9.77;;;3.47;;
81191;SDS011;70665;47.652;-2.730;2023-08-01T09:17:53;10.10;;;3.78;;
81191;SDS011;70665;47.652;-2.730;2023-08-01T09:20:25;7.40;;;4.18;;
81191;SDS011;70665;47.652;-2.730;2023-08-01T09:22:52;9.70;;;3.28;;
81191;SDS011;70665;47.652;-2.730;2023-08-01T09:25:18;10.80;;;3.40;;
81191;SDS011;70665;47.652;-2.730;2023-08-01T09:27:44;9.48;;;3.40;;
81191;SDS011;70665;47.652;-2.730;2023-08-01T09:30:10;8.95;;;3.38;;
81191;SDS011;70665;47.652;-2.730;2023-08-01T09:32:51;8.75;;;4.03;;
81191;SDS011;70665;47.652;-2.730;2023-08-01T09:35:17;10.13;;;3.53;;
81191;SDS011;70665;47.652;-2.730;2023-08-01T09:37:43;12.25;;;3.13;;
81191;SDS011;70665;47.652;-2.730;2023-08-01T09:40:09;8.57;;;3.85;;
81191;SDS011;70665;47.652;-2.730;2023-08-01T09:42:42;12.32;;;3.53;;
81191;SDS011;70665;47.652;-2.730;2023-08-01T09:50:08;10.32;;;3.50;;
81191;SDS011;70665;47.652;-2.730;2023-08-01T09:52:35;10.65;;;4.07;;
81191;SDS011;70665;47.652;-2.730;2023-08-01T09:55:00;12.13;;;4.30;;
81191;SDS011;70665;47.652;-2.730;2023-08-01T09:57:28;11.98;;;2.70;;
81191;SDS011;70665;47.652;-2.730;2023-08-01T09:59:58;13.07;;;3.65;;
81191;SDS011;70665;47.652;-2.730;2023-08-01T10:02:25;8.02;;;2.70;;
81191;SDS011;70665;47.652;-2.730;2023-08-01T10:04:57;11.25;;;3.22;;
81191;SDS011;70665;47.652;-2.730;2023-08-01T10:07:25;14.10;;;3.90;;
81191;SDS011;70665;47.652;-2.730;2023-08-01T10:09:57;16.27;;;4.53;;
81191;SDS011;70665;47.652;-2.730;2023-08-01T10:12:25;10.93;;;3.97;;
81191;SDS011;70665;47.652;-2.730;2023-08-01T10:14:52;10.43;;;3.78;;
81191;SDS011;70665;47.652;-2.730;2023-08-01T10:17:18;9.05;;;3.60;;
81191;SDS011;70665;47.652;-2.730;2023-08-01T10:19:46;7.22;;;3.00;;
81191;SDS011;70665;47.652;-2.730;2023-08-01T10:22:13;7.75;;;3.40;;
81191;SDS011;70665;47.652;-2.730;2023-08-01T10:24:39;8.60;;;3.30;;
81191;SDS011;70665;47.652;-2.730;2023-08-01T10:27:18;9.68;;;3.65;;
81191;SDS011;70665;47.652;-2.730;2023-08-01T10:29:55;10.00;;;3.25;;
81191;SDS011;70665;47.652;-2.730;2023-08-01T10:32:32;9.13;;;3.30;;
81191;SDS011;70665;47.652;-2.730;2023-08-01T10:35:02;8.13;;;3.42;;
81191;SDS011;70665;47.652;-2.730;2023-08-01T10:37:44;10.60;;;4.25;;
81191;SDS011;70665;47.652;-2.730;2023-08-01T10:40:13;9.15;;;3.50;;
81191;SDS011;70665;47.652;-2.730;2023-08-01T10:42:39;12.07;;;4.30;;
81191;SDS011;70665;47.652;-2.730;2023-08-01T10:45:07;13.48;;;4.28;;
81191;SDS011;70665;47.652;-2.730;2023-08-01T10:47:45;14.40;;;3.90;;
81191;SDS011;70665;47.652;-2.730;2023-08-01T10:50:14;15.05;;;4.13;;
81191;SDS011;70665;47.652;-2.730;2023-08-01T10:52:41;15.13;;;4.07;;
81191;SDS011;70665;47.652;-2.730;2023-08-01T10:55:07;14.95;;;4.47;;
81191;SDS011;70665;47.652;-2.730;2023-08-01T10:57:34;15.35;;;4.88;;
81191;SDS011;70665;47.652;-2.730;2023-08-01T11:00:02;13.45;;;3.70;;
81191;SDS011;70665;47.652;-2.730;2023-08-01T11:02:30;13.13;;;4.80;;
81191;SDS011;70665;47.652;-2.730;2023-08-01T11:07:22;12.40;;;3.53;;
81191;SDS011;70665;47.652;-2.730;2023-08-01T11:09:48;11.73;;;4.25;;
81191;SDS011;70665;47.652;-2.730;2023-08-01T11:12:13;12.45;;;3.55;;
81191;SDS011;70665;47.652;-2.730;2023-08-01T11:14:39;10.10;;;3.75;;
81191;SDS011;70665;47.652;-2.730;2023-08-01T11:17:05;10.23;;;3.85;;
81191;SDS011;70665;47.652;-2.730;2023-08-01T11:19:31;10.50;;;4.05;;
81191;SDS011;70665;47.652;-2.730;2023-08-01T11:21:57;9.73;;;3.70;;
81191;SDS011;70665;47.652;-2.730;2023-08-01T11:24:23;13.82;;;4.35;;
81191;SDS011;70665;47.652;-2.730;2023-08-01T11:26:51;14.13;;;4.30;;
81191;SDS011;70665;47.652;-2.730;2023-08-01T11:29:19;8.68;;;3.67;;
81191;SDS011;70665;47.652;-2.730;2023-08-01T11:32:18;13.25;;;4.10;;
81191;SDS011;70665;47.652;-2.730;2023-08-01T11:34:40;15.20;;;3.63;;
81191;SDS011;70665;47.652;-2.730;2023-08-01T11:37:09;12.52;;;3.92;;
81191;SDS011;70665;47.652;-2.730;2023-08-01T11:39:36;16.08;;;4.10;;
81191;SDS011;70665;47.652;-2.730;2023-08-01T11:42:02;11.57;;;3.65;;
81191;SDS011;70665;47.652;-2.730;2023-08-01T11:44:28;12.05;;;3.88;;
81191;SDS011;70665;47.652;-2.730;2023-08-01T11:46:54;14.35;;;4.15;;
81191;SDS011;70665;47.652;-2.730;2023-08-01T11:49:20;10.35;;;3.88;;
81191;SDS011;70665;47.652;-2.730;2023-08-01T11:51:46;14.18;;;4.32;;
81191;SDS011;70665;47.652;-2.730;2023-08-01T11:54:13;14.80;;;4.10;;
81191;SDS011;70665;47.652;-2.730;2023-08-01T11:56:40;11.20;;;4.03;;
81191;SDS011;70665;47.652;-2.730;2023-08-01T11:59:10;12.30;;;4.28;;
81191;SDS011;70665;47.652;-2.730;2023-08-01T12:01:41;13.73;;;3.67;;
81191;SDS011;70665;47.652;-2.730;2023-08-01T12:04:07;10.55;;;3.58;;
81191;SDS011;70665;47.652;-2.730;2023-08-01T12:06:33;9.65;;;4.10;;
81191;SDS011;70665;47.652;-2.730;2023-08-01T12:09:32;8.63;;;3.65;;
81191;SDS011;70665;47.652;-2.730;2023-08-01T12:11:57;11.57;;;3.67;;
81191;SDS011;70665;47.652;-2.730;2023-08-01T12:14:27;13.57;;;3.90;;
81191;SDS011;70665;47.652;-2.730;2023-08-01T12:16:53;13.05;;;3.83;;
81191;SDS011;70665;47.652;-2.730;2023-08-01T12:19:19;12.55;;;3.33;;
81191;SDS011;70665;47.652;-2.730;2023-08-01T12:21:45;8.50;;;3.42;;
81191;SDS011;70665;47.652;-2.730;2023-08-01T12:24:11;9.77;;;3.35;;
81191;SDS011;70665;47.652;-2.730;2023-08-01T12:26:37;9.18;;;3.78;;
81191;SDS011;70665;47.652;-2.730;2023-08-01T12:29:03;7.50;;;2.80;;
81191;SDS011;70665;47.652;-2.730;2023-08-01T12:31:28;10.90;;;3.55;;
81191;SDS011;70665;47.652;-2.730;2023-08-01T12:33:54;13.23;;;4.47;;
81191;SDS011;70665;47.652;-2.730;2023-08-01T12:36:20;9.77;;;3.60;;
81191;SDS011;70665;47.652;-2.730;2023-08-01T12:38:46;7.45;;;3.13;;
81191;SDS011;70665;47.652;-2.730;2023-08-01T12:41:11;13.32;;;3.85;;
81191;SDS011;70665;47.652;-2.730;2023-08-01T12:43:37;11.18;;;3.75;;
81191;SDS011;70665;47.652;-2.730;2023-08-01T12:46:03;7.65;;;3.50;;
81191;SDS011;70665;47.652;-2.730;2023-08-01T12:48:29;11.38;;;4.10;;
81191;SDS011;70665;47.652;-2.730;2023-08-01T12:50:55;9.75;;;3.85;;
81191;SDS011;70665;47.652;-2.730;2023-08-01T12:53:21;5.95;;;2.97;;
81191;SDS011;70665;47.652;-2.730;2023-08-01T12:55:48;6.85;;;2.40;;
81191;SDS011;70665;47.652;-2.730;2023-08-01T12:58:15;8.68;;;3.03;;
81191;SDS011;70665;47.652;-2.730;2023-08-01T13:00:42;7.30;;;2.55;;
81191;SDS011;70665;47.652;-2.730;2023-08-01T13:03:08;6.95;;;3.05;;
81191;SDS011;70665;47.652;-2.730;2023-08-01T13:05:35;9.25;;;3.58;;
81191;SDS011;70665;47.652;-2.730;2023-08-01T13:08:01;7.43;;;3.00;;
81191;SDS011;70665;47.652;-2.730;2023-08-01T13:10:30;8.90;;;3.70;;
81191;SDS011;70665;47.652;-2.730;2023-08-01T13:12:57;8.70;;;2.90;;
81191;SDS011;70665;47.652;-2.730;2023-08-01T13:15:23;10.13;;;3.40;;
81191;SDS011;70665;47.652;-2.730;2023-08-01T13:17:49;8.00;;;3.08;;
81191;SDS011;70665;47.652;-2.730;2023-08-01T13:20:15;9.70;;;3.47;;
81191;SDS011;70665;47.652;-2.730;2023-08-01T13:22:40;12.23;;;3.90;;
81191;SDS011;70665;47.652;-2.730;2023-08-01T13:25:06;11.80;;;3.97;;
81191;SDS011;70665;47.652;-2.730;2023-08-01T13:27:34;8.40;;;3.63;;
81191;SDS011;70665;47.652;-2.730;2023-08-01T13:30:00;9.82;;;4.10;;
81191;SDS011;70665;47.652;-2.730;2023-08-01T13:32:27;11.13;;;4.10;;
81191;SDS011;70665;47.652;-2.730;2023-08-01T13:34:52;10.57;;;4.05;;
81191;SDS011;70665;47.652;-2.730;2023-08-01T13:37:18;13.52;;;3.97;;
81191;SDS011;70665;47.652;-2.730;2023-08-01T13:39:44;12.18;;;3.63;;
81191;SDS011;70665;47.652;-2.730;2023-08-01T13:42:11;12.90;;;3.75;;
81191;SDS011;70665;47.652;-2.730;2023-08-01T13:44:40;13.15;;;4.38;;
81191;SDS011;70665;47.652;-2.730;2023-08-01T13:47:06;9.45;;;4.10;;
81191;SDS011;70665;47.652;-2.730;2023-08-01T13:49:31;12.88;;;4.07;;
81191;SDS011;70665;47.652;-2.730;2023-08-01T13:51:57;10.68;;;3.95;;
81191;SDS011;70665;47.652;-2.730;2023-08-01T13:54:24;19.52;;;4.20;;
81191;SDS011;70665;47.652;-2.730;2023-08-01T13:56:49;15.10;;;4.53;;
81191;SDS011;70665;47.652;-2.730;2023-08-01T13:59:15;10.02;;;4.32;;
81191;SDS011;70665;47.652;-2.730;2023-08-01T14:01:40;10.68;;;4.25;;
81191;SDS011;70665;47.652;-2.730;2023-08-01T14:04:06;12.40;;;5.00;;
81191;SDS011;70665;47.652;-2.730;2023-08-01T14:06:32;10.93;;;4.30;;
81191;SDS011;70665;47.652;-2.730;2023-08-01T14:08:58;10.07;;;4.60;;
81191;SDS011;70665;47.652;-2.730;2023-08-01T14:11:23;14.98;;;4.50;;
81191;SDS011;70665;47.652;-2.730;2023-08-01T14:13:49;12.70;;;4.60;;
81191;SDS011;70665;47.652;-2.730;2023-08-01T14:16:14;13.52;;;3.78;;
81191;SDS011;70665;47.652;-2.730;2023-08-01T14:18:41;13.18;;;4.65;;
81191;SDS011;70665;47.652;-2.730;2023-08-01T14:21:09;12.20;;;4.00;;
81191;SDS011;70665;47.652;-2.730;2023-08-01T14:23:34;16.25;;;4.90;;
81191;SDS011;70665;47.652;-2.730;2023-08-01T14:26:02;15.45;;;4.97;;
81191;SDS011;70665;47.652;-2.730;2023-08-01T14:28:28;16.55;;;4.97;;
81191;SDS011;70665;47.652;-2.730;2023-08-01T14:30:54;10.95;;;3.38;;
81191;SDS011;70665;47.652;-2.730;2023-08-01T14:33:20;13.43;;;4.82;;
81191;SDS011;70665;47.652;-2.730;2023-08-01T14:35:46;11.77;;;4.63;;
81191;SDS011;70665;47.652;-2.730;2023-08-01T14:38:11;14.18;;;4.53;;
81191;SDS011;70665;47.652;-2.730;2023-08-01T14:40:37;19.40;;;4.65;;
81191;SDS011;70665;47.652;-2.730;2023-08-01T14:43:04;14.85;;;4.57;;
81191;SDS011;70665;47.652;-2.730;2023-08-01T14:45:30;16.13;;;4.70;;
81191;SDS011;70665;47.652;-2.730;2023-08-01T14:47:55;9.32;;;3.95;;
81191;SDS011;70665;47.652;-2.730;2023-08-01T14:50:21;13.55;;;5.47;;
81191;SDS011;70665;47.652;-2.730;2023-08-01T14:52:47;15.13;;;4.60;;
81191;SDS011;70665;47.652;-2.730;2023-08-01T14:55:12;13.50;;;4.63;;
81191;SDS011;70665;47.652;-2.730;2023-08-01T14:57:38;13.85;;;4.80;;
81191;SDS011;70665;47.652;-2.730;2023-08-01T15:00:04;14.38;;;4.93;;
81191;SDS011;70665;47.652;-2.730;2023-08-01T15:02:30;17.85;;;4.93;;
81191;SDS011;70665;47.652;-2.730;2023-08-01T15:04:56;16.08;;;5.18;;
81191;SDS011;70665;47.652;-2.730;2023-08-01T15:07:22;14.30;;;5.00;;
81191;SDS011;70665;47.652;-2.730;2023-08-01T15:09:49;15.88;;;4.15;;
81191;SDS011;70665;47.652;-2.730;2023-08-01T15:12:18;13.63;;;4.95;;
81191;SDS011;70665;47.652;-2.730;2023-08-01T15:14:51;11.30;;;4.32;;
81191;SDS011;70665;47.652;-2.730;2023-08-01T15:17:18;16.77;;;4.50;;
81191;SDS011;70665;47.652;-2.730;2023-08-01T15:19:43;13.27;;;4.82;;
81191;SDS011;70665;47.652;-2.730;2023-08-01T15:22:11;15.18;;;5.75;;
81191;SDS011;70665;47.652;-2.730;2023-08-01T15:24:40;10.82;;;4.60;;
81191;SDS011;70665;47.652;-2.730;2023-08-01T15:27:06;21.52;;;5.35;;
81191;SDS011;70665;47.652;-2.730;2023-08-01T15:29:32;13.38;;;4.88;;
81191;SDS011;70665;47.652;-2.730;2023-08-01T15:31:57;18.65;;;5.72;;
81191;SDS011;70665;47.652;-2.730;2023-08-01T15:34:23;18.42;;;4.85;;
81191;SDS011;70665;47.652;-2.730;2023-08-01T15:36:49;18.27;;;5.20;;
81191;SDS011;70665;47.652;-2.730;2023-08-01T15:39:14;18.85;;;4.30;;
81191;SDS011;70665;47.652;-2.730;2023-08-01T15:41:40;10.77;;;4.45;;
81191;SDS011;70665;47.652;-2.730;2023-08-01T15:44:07;13.00;;;4.97;;
81191;SDS011;70665;47.652;-2.730;2023-08-01T15:46:32;8.95;;;4.13;;
81191;SDS011;70665;47.652;-2.730;2023-08-01T15:48:58;10.82;;;5.10;;
81191;SDS011;70665;47.652;-2.730;2023-08-01T15:51:24;10.93;;;4.82;;
81191;SDS011;70665;47.652;-2.730;2023-08-01T15:53:50;17.13;;;4.28;;
81191;SDS011;70665;47.652;-2.730;2023-08-01T15:56:16;11.38;;;4.00;;
81191;SDS011;70665;47.652;-2.730;2023-08-01T15:58:41;12.30;;;5.00;;